createdAt,value
2018-05-08T00:00:10.688Z,0.00
2018-05-08T00:01:10.608Z,0.00
2018-05-08T00:03:03.470Z,0.00
2018-05-08T00:04:03.346Z,0.00
2018-05-08T00:05:56.212Z,0.00
2018-05-08T00:06:56.092Z,0.00
2018-05-08T00:08:48.986Z,0.00
2018-05-08T00:09:48.841Z,0.00
2018-05-08T00:11:41.799Z,0.00
2018-05-08T00:12:41.699Z,0.00
2018-05-08T00:14:34.578Z,0.00
2018-05-08T00:15:34.451Z,0.00
2018-05-08T00:17:27.327Z,0.00
2018-05-08T00:18:27.193Z,0.00
2018-05-08T00:20:20.070Z,0.00
2018-05-08T00:21:19.951Z,0.00
2018-05-08T00:23:12.818Z,0.00
2018-05-08T00:24:12.704Z,0.00
2018-05-08T00:26:05.648Z,0.00
2018-05-08T00:27:05.560Z,0.00
2018-05-08T00:28:58.410Z,0.00
2018-05-08T00:29:58.298Z,0.00
2018-05-08T00:31:51.142Z,0.00
2018-05-08T00:32:51.042Z,0.00
2018-05-08T00:34:43.912Z,0.00
2018-05-08T00:35:43.799Z,0.00
2018-05-08T00:37:36.668Z,0.00
2018-05-08T00:38:36.545Z,0.00
2018-05-08T00:40:29.402Z,0.00
2018-05-08T00:41:29.293Z,0.00
2018-05-08T00:43:22.146Z,0.00
2018-05-08T00:44:22.112Z,0.00
2018-05-08T00:46:14.897Z,0.00
2018-05-08T00:47:14.795Z,0.00
2018-05-08T00:49:07.674Z,0.00
2018-05-08T00:50:07.538Z,0.00
2018-05-08T00:52:00.393Z,0.00
2018-05-08T00:53:00.302Z,0.00
2018-05-08T00:54:53.163Z,0.00
2018-05-08T00:55:53.047Z,0.00
2018-05-08T00:57:45.880Z,0.00
2018-05-08T00:58:45.785Z,0.00
2018-05-08T01:00:38.650Z,0.00
2018-05-08T01:01:38.542Z,0.00
2018-05-08T01:03:31.382Z,0.00
2018-05-08T01:04:31.306Z,0.00
2018-05-08T01:06:24.281Z,0.00
2018-05-08T01:07:24.161Z,0.00
2018-05-08T01:09:16.987Z,0.00
2018-05-08T01:10:16.890Z,0.00
2018-05-08T01:12:09.753Z,0.00
2018-05-08T01:13:09.658Z,0.00
2018-05-08T01:15:03.006Z,0.00
2018-05-08T01:16:02.958Z,0.00
2018-05-08T01:17:55.787Z,0.00
2018-05-08T01:18:55.666Z,0.00
2018-05-08T01:20:48.504Z,0.00
2018-05-08T01:21:48.406Z,0.00
2018-05-08T01:23:41.262Z,0.00
2018-05-08T01:24:41.150Z,0.00
2018-05-08T01:26:34.094Z,0.00
2018-05-08T01:27:34.011Z,0.00
2018-05-08T01:29:26.856Z,0.00
2018-05-08T01:30:26.787Z,0.00
2018-05-08T01:32:19.699Z,0.00
2018-05-08T01:33:19.623Z,0.00
2018-05-08T01:35:12.486Z,0.00
2018-05-08T01:36:12.353Z,0.00
2018-05-08T01:38:05.204Z,0.00
2018-05-08T01:39:05.120Z,0.00
2018-05-08T01:40:57.951Z,0.00
2018-05-08T01:41:57.865Z,0.00
2018-05-08T01:43:50.723Z,0.00
2018-05-08T01:44:50.600Z,0.00
2018-05-08T01:46:43.351Z,0.00
2018-05-08T01:47:43.248Z,0.00
2018-05-08T01:49:36.105Z,0.00
2018-05-08T01:50:36.000Z,0.00
2018-05-08T01:52:28.971Z,0.00
2018-05-08T01:53:28.850Z,0.00
2018-05-08T01:55:21.704Z,0.00
2018-05-08T01:56:21.604Z,0.00
2018-05-08T01:58:14.858Z,0.00
2018-05-08T01:59:14.787Z,0.00
2018-05-08T02:01:07.629Z,0.00
2018-05-08T02:02:07.515Z,0.00
2018-05-08T02:04:00.364Z,0.00
2018-05-08T02:05:00.331Z,0.00
2018-05-08T02:06:53.121Z,0.00
2018-05-08T02:07:53.027Z,0.00
2018-05-08T02:09:46.357Z,0.00
2018-05-08T02:10:45.758Z,0.00
2018-05-08T02:12:38.650Z,0.00
2018-05-08T02:13:38.504Z,0.00
2018-05-08T02:15:31.356Z,0.00
2018-05-08T02:16:31.260Z,0.00
2018-05-08T02:18:24.126Z,0.00
2018-05-08T02:19:24.005Z,0.00
2018-05-08T02:21:16.862Z,0.00
2018-05-08T02:22:16.757Z,0.00
2018-05-08T02:24:09.625Z,0.00
2018-05-08T02:25:09.512Z,0.00
2018-05-08T02:27:02.398Z,0.00
2018-05-08T02:28:02.256Z,0.00
2018-05-08T02:29:55.123Z,0.00
2018-05-08T02:30:55.002Z,0.00
2018-05-08T02:32:47.982Z,0.00
2018-05-08T02:33:47.876Z,0.00
2018-05-08T02:35:40.705Z,0.00
2018-05-08T02:36:40.630Z,0.00
2018-05-08T02:38:33.549Z,0.00
2018-05-08T02:39:33.364Z,0.00
2018-05-08T02:41:26.221Z,0.00
2018-05-08T02:42:26.120Z,0.00
2018-05-08T02:44:18.977Z,0.00
2018-05-08T02:45:18.862Z,0.00
2018-05-08T02:47:11.724Z,0.00
2018-05-08T02:48:11.655Z,0.00
2018-05-08T02:50:04.473Z,0.00
2018-05-08T02:51:04.389Z,0.00
2018-05-08T02:52:57.196Z,0.00
2018-05-08T02:53:57.103Z,0.00
2018-05-08T02:55:49.966Z,0.00
2018-05-08T02:56:49.848Z,0.00
2018-05-08T02:58:42.699Z,0.00
2018-05-08T02:59:42.612Z,0.00
2018-05-08T03:01:35.456Z,0.00
2018-05-08T03:02:35.348Z,0.00
2018-05-08T03:04:28.241Z,0.00
2018-05-08T03:05:28.102Z,4.00
2018-05-08T03:07:21.457Z,0.00
2018-05-08T03:08:20.873Z,0.00
2018-05-08T03:10:14.243Z,0.00
2018-05-08T03:11:14.126Z,4.00
2018-05-08T03:13:06.999Z,4.00
2018-05-08T03:14:06.859Z,8.00
2018-05-08T03:16:00.233Z,4.00
2018-05-08T03:17:00.120Z,4.00
2018-05-08T03:18:52.981Z,12.00
2018-05-08T03:19:52.875Z,8.00
2018-05-08T03:21:45.758Z,16.00
2018-05-08T03:22:45.675Z,16.00
2018-05-08T03:24:38.476Z,20.00
2018-05-08T03:25:38.385Z,24.00
2018-05-08T03:27:31.254Z,32.00
2018-05-08T03:28:31.124Z,36.00
2018-05-08T03:30:23.971Z,44.00
2018-05-08T03:31:23.913Z,48.00
2018-05-08T03:33:16.726Z,60.00
2018-05-08T03:34:16.626Z,68.00
2018-05-08T03:36:09.470Z,80.00
2018-05-08T03:37:09.365Z,88.00
2018-05-08T03:39:02.254Z,104.00
2018-05-08T03:40:02.117Z,112.00
2018-05-08T03:41:55.006Z,132.00
2018-05-08T03:42:54.873Z,140.00
2018-05-08T03:44:47.724Z,164.00
2018-05-08T03:45:47.859Z,176.00
2018-05-08T03:47:40.563Z,196.00
2018-05-08T03:48:40.367Z,208.00
2018-05-08T03:50:33.219Z,228.00
2018-05-08T03:51:33.113Z,240.00
2018-05-08T03:53:25.979Z,264.00
2018-05-08T03:54:25.865Z,280.00
2018-05-08T03:56:18.763Z,308.00
2018-05-08T03:57:18.719Z,320.00
2018-05-08T03:59:11.487Z,348.00
2018-05-08T04:00:11.366Z,360.00
2018-05-08T04:02:05.829Z,388.00
2018-05-08T04:03:05.205Z,400.00
2018-05-08T04:04:58.019Z,424.00
2018-05-08T04:05:57.890Z,440.00
2018-05-08T04:07:50.638Z,464.00
2018-05-08T04:08:50.568Z,476.00
2018-05-08T04:10:43.483Z,500.00
2018-05-08T04:11:43.300Z,516.00
2018-05-08T04:13:36.174Z,536.00
2018-05-08T04:14:36.064Z,548.00
2018-05-08T04:16:28.816Z,572.00
2018-05-08T04:17:28.692Z,584.00
2018-05-08T04:19:21.447Z,604.00
2018-05-08T04:20:21.368Z,620.00
2018-05-08T04:22:14.181Z,640.00
2018-05-08T04:23:14.082Z,648.00
2018-05-08T04:25:06.859Z,672.00
2018-05-08T04:26:06.736Z,680.00
2018-05-08T04:27:59.986Z,700.00
2018-05-08T04:28:59.929Z,712.00
2018-05-08T04:30:52.679Z,728.00
2018-05-08T04:31:52.532Z,740.00
2018-05-08T04:33:45.893Z,756.00
2018-05-08T04:34:45.814Z,768.00
2018-05-08T04:36:38.630Z,784.00
2018-05-08T04:37:38.438Z,792.00
2018-05-08T04:39:32.335Z,812.00
2018-05-08T04:40:32.240Z,820.00
2018-05-08T04:42:24.982Z,832.00
2018-05-08T04:43:24.886Z,840.00
2018-05-08T04:45:18.903Z,856.00
2018-05-08T04:46:18.634Z,864.00
2018-05-08T04:48:11.493Z,880.00
2018-05-08T04:49:11.515Z,888.00
2018-05-08T04:51:04.288Z,900.00
2018-05-08T04:52:04.252Z,904.00
2018-05-08T04:53:57.252Z,924.00
2018-05-08T04:54:56.975Z,928.00
2018-05-08T04:56:49.649Z,940.00
2018-05-08T04:57:49.537Z,948.00
2018-05-08T04:59:42.285Z,956.00
2018-05-08T05:00:42.245Z,968.00
2018-05-08T05:02:35.120Z,976.00
2018-05-08T05:03:34.929Z,984.00
2018-05-08T05:05:28.471Z,996.00
2018-05-08T05:06:27.675Z,1004.00
2018-05-08T05:08:20.453Z,1012.00
2018-05-08T05:09:20.335Z,1024.00
2018-05-08T05:11:13.197Z,1036.00
2018-05-08T05:12:13.075Z,1048.00
2018-05-08T05:14:05.848Z,1064.00
2018-05-08T05:15:05.747Z,1076.00
2018-05-08T05:16:58.597Z,1092.00
2018-05-08T05:17:58.570Z,1108.00
2018-05-08T05:19:51.224Z,1136.00
2018-05-08T05:20:51.128Z,1152.00
2018-05-08T05:22:43.895Z,1200.00
2018-05-08T05:23:43.794Z,1216.00
2018-05-08T05:25:36.616Z,1256.00
2018-05-08T05:26:36.521Z,1300.00
2018-05-08T05:28:29.285Z,1412.00
2018-05-08T05:29:29.175Z,1460.00
2018-05-08T05:31:22.013Z,1516.00
2018-05-08T05:32:21.939Z,1536.00
2018-05-08T05:34:14.666Z,1556.00
2018-05-08T05:35:14.569Z,1564.00
2018-05-08T05:37:07.378Z,1580.00
2018-05-08T05:38:07.280Z,1588.00
2018-05-08T05:40:00.122Z,1604.00
2018-05-08T05:40:59.956Z,1608.00
2018-05-08T05:42:52.821Z,1620.00
2018-05-08T05:43:52.720Z,1628.00
2018-05-08T05:45:45.743Z,1640.00
2018-05-08T05:46:45.460Z,1644.00
2018-05-08T05:48:38.332Z,1656.00
2018-05-08T05:49:38.208Z,1664.00
2018-05-08T05:51:30.965Z,1676.00
2018-05-08T05:52:31.002Z,1680.00
2018-05-08T05:54:23.725Z,1692.00
2018-05-08T05:55:23.632Z,1696.00
2018-05-08T05:57:16.461Z,1708.00
2018-05-08T05:58:16.353Z,1712.00
2018-05-08T06:00:09.211Z,1724.00
2018-05-08T06:01:09.100Z,1728.00
2018-05-08T06:03:01.954Z,1740.00
2018-05-08T06:04:01.859Z,1744.00
2018-05-08T06:05:54.702Z,1756.00
2018-05-08T06:06:54.625Z,1764.00
2018-05-08T06:08:48.385Z,1776.00
2018-05-08T06:09:48.382Z,1776.00
2018-05-08T06:11:41.241Z,1792.00
2018-05-08T06:12:41.257Z,1800.00
2018-05-08T06:14:33.875Z,1816.00
2018-05-08T06:15:33.768Z,1820.00
2018-05-08T06:17:26.625Z,1832.00
2018-05-08T06:18:26.521Z,1840.00
2018-05-08T06:20:19.326Z,1852.00
2018-05-08T06:21:19.230Z,1860.00
2018-05-08T06:23:12.055Z,1876.00
2018-05-08T06:24:11.946Z,1880.00
2018-05-08T06:26:05.291Z,1896.00
2018-05-08T06:27:05.188Z,1904.00
2018-05-08T06:28:58.123Z,1920.00
2018-05-08T06:29:58.019Z,1928.00
2018-05-08T06:31:51.358Z,1944.00
2018-05-08T06:32:50.680Z,1948.00
2018-05-08T06:34:43.579Z,1968.00
2018-05-08T06:35:43.466Z,1976.00
2018-05-08T06:37:36.332Z,1984.00
2018-05-08T06:38:36.236Z,1996.00
2018-05-08T06:40:29.100Z,2008.00
2018-05-08T06:41:28.959Z,2016.00
2018-05-08T06:43:21.998Z,2036.00
2018-05-08T06:44:21.815Z,2044.00
2018-05-08T06:46:15.728Z,2056.00
2018-05-08T06:47:15.582Z,2064.00
2018-05-08T06:49:08.626Z,2076.00
2018-05-08T06:50:08.311Z,2080.00
2018-05-08T06:52:01.992Z,2092.00
2018-05-08T06:53:02.018Z,2100.00
2018-05-08T06:54:54.770Z,2116.00
2018-05-08T06:55:54.649Z,2124.00
2018-05-08T06:57:50.721Z,2144.00
2018-05-08T06:58:50.796Z,2152.00
2018-05-08T07:00:46.545Z,2172.00
2018-05-08T07:01:47.173Z,2176.00
2018-05-08T07:03:40.086Z,2196.00
2018-05-08T07:04:40.117Z,2204.00
2018-05-08T07:06:32.859Z,2216.00
2018-05-08T07:07:32.694Z,2228.00
2018-05-08T07:09:25.549Z,2248.00
2018-05-08T07:10:25.463Z,2252.00
2018-05-08T07:12:18.392Z,2264.00
2018-05-08T07:13:18.215Z,2276.00
2018-05-08T07:15:12.087Z,2292.00
2018-05-08T07:16:12.259Z,2300.00
2018-05-08T07:18:04.907Z,2324.00
2018-05-08T07:19:04.726Z,2328.00
2018-05-08T07:20:57.788Z,2344.00
2018-05-08T07:21:57.571Z,2356.00
2018-05-08T07:23:50.463Z,2372.00
2018-05-08T07:24:50.375Z,2328.00
2018-05-08T07:26:43.622Z,2392.00
2018-05-08T07:27:43.524Z,2404.00
2018-05-08T07:29:36.468Z,2416.00
2018-05-08T07:30:36.276Z,2420.00
2018-05-08T07:32:29.127Z,2436.00
2018-05-08T07:33:29.007Z,2440.00
2018-05-08T07:35:21.892Z,2464.00
2018-05-08T07:36:21.772Z,2472.00
2018-05-08T07:38:16.227Z,2496.00
2018-05-08T07:39:15.925Z,2504.00
2018-05-08T07:41:09.850Z,2516.00
2018-05-08T07:42:09.687Z,2524.00
2018-05-08T07:44:03.088Z,2536.00
2018-05-08T07:45:02.472Z,2532.00
2018-05-08T07:46:56.889Z,2552.00
2018-05-08T07:47:56.612Z,2560.00
2018-05-08T07:49:49.599Z,2572.00
2018-05-08T07:50:49.407Z,2576.00
2018-05-08T07:52:42.767Z,2608.00
2018-05-08T07:53:42.129Z,2628.00
2018-05-08T07:55:38.264Z,2676.00
2018-05-08T07:56:38.232Z,2700.00
2018-05-08T07:58:32.627Z,2764.00
2018-05-08T07:59:32.558Z,2800.00
2018-05-08T08:01:25.940Z,2868.00
2018-05-08T08:02:25.301Z,2908.00
2018-05-08T08:04:18.112Z,2968.00
2018-05-08T08:05:18.059Z,2988.00
2018-05-08T08:07:10.804Z,3032.00
2018-05-08T08:08:10.675Z,3064.00
2018-05-08T08:10:04.112Z,3104.00
2018-05-08T08:11:03.428Z,3124.00
2018-05-08T08:12:56.284Z,3168.00
2018-05-08T08:13:56.186Z,3184.00
2018-05-08T08:15:49.038Z,3224.00
2018-05-08T08:16:48.917Z,3232.00
2018-05-08T08:18:41.779Z,3248.00
2018-05-08T08:19:41.672Z,3260.00
2018-05-08T08:21:34.531Z,3276.00
2018-05-08T08:22:34.438Z,3284.00
2018-05-08T08:24:27.278Z,3304.00
2018-05-08T08:25:27.178Z,3308.00
2018-05-08T08:27:20.027Z,3328.00
2018-05-08T08:28:19.915Z,3336.00
2018-05-08T08:30:12.764Z,3352.00
2018-05-08T08:31:12.681Z,3356.00
2018-05-08T08:33:05.526Z,3372.00
2018-05-08T08:34:05.444Z,3380.00
2018-05-08T08:35:58.259Z,3392.00
2018-05-08T08:36:58.173Z,3400.00
2018-05-08T08:38:51.050Z,3412.00
2018-05-08T08:39:50.918Z,3420.00
2018-05-08T08:41:43.760Z,3432.00
2018-05-08T08:42:43.664Z,3432.00
2018-05-08T08:44:36.522Z,3444.00
2018-05-08T08:45:36.458Z,3452.00
2018-05-08T08:47:29.372Z,3464.00
2018-05-08T08:48:29.176Z,3468.00
2018-05-08T08:50:22.029Z,3480.00
2018-05-08T08:51:21.924Z,3492.00
2018-05-08T08:53:14.783Z,3492.00
2018-05-08T08:54:14.661Z,3500.00
2018-05-08T08:56:07.980Z,3512.00
2018-05-08T08:57:07.824Z,3516.00
2018-05-08T08:59:00.710Z,3532.00
2018-05-08T09:00:00.591Z,3540.00
2018-05-08T09:01:53.459Z,3552.00
2018-05-08T09:02:53.317Z,3564.00
2018-05-08T09:04:46.204Z,3592.00
2018-05-08T09:05:46.100Z,3592.00
2018-05-08T09:07:38.927Z,3592.00
2018-05-08T09:08:38.853Z,3608.00
2018-05-08T09:10:31.713Z,3604.00
2018-05-08T09:11:31.572Z,3608.00
2018-05-08T09:13:24.559Z,3488.00
2018-05-08T09:14:24.323Z,3620.00
2018-05-08T09:16:17.177Z,3652.00
2018-05-08T09:17:17.071Z,3664.00
2018-05-08T09:19:09.917Z,3684.00
2018-05-08T09:20:09.864Z,3684.00
2018-05-08T09:22:02.676Z,3696.00
2018-05-08T09:23:02.602Z,3712.00
2018-05-08T09:24:55.431Z,3708.00
2018-05-08T09:25:55.319Z,3708.00
2018-05-08T09:27:48.222Z,3724.00
2018-05-08T09:28:48.080Z,3720.00
2018-05-08T09:30:40.908Z,3740.00
2018-05-08T09:31:40.849Z,3740.00
2018-05-08T09:33:33.686Z,3768.00
2018-05-08T09:34:33.581Z,3772.00
2018-05-08T09:36:26.471Z,3788.00
2018-05-08T09:37:26.343Z,3788.00
2018-05-08T09:39:20.309Z,3796.00
2018-05-08T09:40:19.095Z,3800.00
2018-05-08T09:42:11.933Z,3812.00
2018-05-08T09:43:11.833Z,3832.00
2018-05-08T09:45:04.657Z,3848.00
2018-05-08T09:46:04.563Z,3856.00
2018-05-08T09:47:57.427Z,3856.00
2018-05-08T09:48:57.347Z,3860.00
2018-05-08T09:50:50.283Z,3860.00
2018-05-08T09:51:50.075Z,3864.00
2018-05-08T09:53:42.942Z,3876.00
2018-05-08T09:54:42.847Z,3888.00
2018-05-08T09:56:35.659Z,3896.00
2018-05-08T09:57:35.589Z,3888.00
2018-05-08T09:59:28.431Z,3884.00
2018-05-08T10:00:28.351Z,3892.00
2018-05-08T10:02:21.209Z,3876.00
2018-05-08T10:03:21.115Z,3876.00
2018-05-08T10:05:14.440Z,3872.00
2018-05-08T10:06:14.031Z,3880.00
2018-05-08T10:08:06.665Z,3884.00
2018-05-08T10:09:06.579Z,3900.00
2018-05-08T10:10:59.645Z,3908.00
2018-05-08T10:11:59.332Z,3888.00
2018-05-08T10:13:52.799Z,3908.00
2018-05-08T10:14:52.584Z,3916.00
2018-05-08T10:16:45.466Z,3892.00
2018-05-08T10:17:45.415Z,3896.00
2018-05-08T10:19:38.183Z,3900.00
2018-05-08T10:20:38.202Z,3912.00
2018-05-08T10:22:31.439Z,3896.00
2018-05-08T10:23:31.352Z,3896.00
2018-05-08T10:25:24.395Z,3892.00
2018-05-08T10:26:24.263Z,3900.00
2018-05-08T10:28:16.964Z,3904.00
2018-05-08T10:29:16.856Z,3896.00
2018-05-08T10:31:09.729Z,3916.00
2018-05-08T10:32:09.594Z,3908.00
2018-05-08T10:34:02.480Z,3896.00
2018-05-08T10:35:02.351Z,3892.00
2018-05-08T10:36:55.722Z,3872.00
2018-05-08T10:37:55.131Z,3872.00
2018-05-08T10:39:47.976Z,3884.00
2018-05-08T10:40:47.883Z,3892.00
2018-05-08T10:42:40.820Z,3876.00
2018-05-08T10:43:40.674Z,3880.00
2018-05-08T10:45:33.679Z,3892.00
2018-05-08T10:46:33.494Z,3880.00
2018-05-08T10:48:26.376Z,3884.00
2018-05-08T10:49:26.203Z,3888.00
2018-05-08T10:51:19.036Z,3888.00
2018-05-08T10:52:18.961Z,3884.00
2018-05-08T10:54:11.800Z,3880.00
2018-05-08T10:55:11.701Z,3872.00
2018-05-08T10:57:04.700Z,3880.00
2018-05-08T10:58:04.556Z,3888.00
2018-05-08T10:59:57.402Z,3868.00
2018-05-08T11:00:57.299Z,3868.00
2018-05-08T11:02:50.151Z,3848.00
2018-05-08T11:03:50.046Z,3848.00
2018-05-08T11:05:42.877Z,3844.00
2018-05-08T11:06:42.799Z,3840.00
2018-05-08T11:08:35.648Z,3820.00
2018-05-08T11:09:35.556Z,3828.00
2018-05-08T11:11:28.382Z,3820.00
2018-05-08T11:12:28.304Z,3816.00
2018-05-08T11:14:21.154Z,3820.00
2018-05-08T11:15:21.043Z,3804.00
2018-05-08T11:17:13.913Z,3800.00
2018-05-08T11:18:13.799Z,3776.00
2018-05-08T11:20:06.646Z,3780.00
2018-05-08T11:21:06.542Z,3760.00
2018-05-08T11:22:59.380Z,3760.00
2018-05-08T11:23:59.304Z,3732.00
2018-05-08T11:25:52.245Z,3736.00
2018-05-08T11:26:52.262Z,3740.00
2018-05-08T11:28:44.979Z,3736.00
2018-05-08T11:29:44.899Z,3732.00
2018-05-08T11:31:37.777Z,3724.00
2018-05-08T11:32:37.692Z,3712.00
2018-05-08T11:34:30.477Z,3692.00
2018-05-08T11:35:30.427Z,3680.00
2018-05-08T11:37:23.264Z,3676.00
2018-05-08T11:38:23.140Z,3676.00
2018-05-08T11:40:16.507Z,3668.00
2018-05-08T11:41:16.417Z,3652.00
2018-05-08T11:43:09.269Z,3640.00
2018-05-08T11:44:09.152Z,3640.00
2018-05-08T11:46:01.994Z,3628.00
2018-05-08T11:47:01.904Z,3624.00
2018-05-08T11:48:54.766Z,3620.00
2018-05-08T11:49:54.751Z,3616.00
2018-05-08T11:51:47.501Z,3604.00
2018-05-08T11:52:47.413Z,3600.00
2018-05-08T11:54:40.346Z,3584.00
2018-05-08T11:55:40.265Z,3584.00
2018-05-08T11:57:33.087Z,3584.00
2018-05-08T11:58:33.013Z,3576.00
2018-05-08T12:00:25.846Z,3576.00
2018-05-08T12:01:25.746Z,3576.00
2018-05-08T12:03:19.213Z,3560.00
2018-05-08T12:04:18.526Z,3560.00
2018-05-08T12:06:11.373Z,3544.00
2018-05-08T12:07:11.273Z,3552.00
2018-05-08T12:09:04.084Z,3540.00
2018-05-08T12:10:04.011Z,3532.00
2018-05-08T12:11:56.860Z,3520.00
2018-05-08T12:12:56.764Z,3524.00
2018-05-08T12:14:49.680Z,3508.00
2018-05-08T12:15:49.532Z,3500.00
2018-05-08T12:17:42.891Z,3500.00
2018-05-08T12:18:42.760Z,3508.00
2018-05-08T12:20:35.611Z,3496.00
2018-05-08T12:21:35.517Z,3500.00
2018-05-08T12:23:28.340Z,3496.00
2018-05-08T12:24:28.290Z,3488.00
2018-05-08T12:26:21.131Z,3488.00
2018-05-08T12:27:21.013Z,3480.00
2018-05-08T12:29:13.867Z,3476.00
2018-05-08T12:30:13.760Z,3472.00
2018-05-08T12:32:06.609Z,3472.00
2018-05-08T12:33:06.506Z,3468.00
2018-05-08T12:34:59.363Z,3456.00
2018-05-08T12:35:59.264Z,3460.00
2018-05-08T12:37:52.108Z,3460.00
2018-05-08T12:38:52.045Z,3460.00
2018-05-08T12:40:44.858Z,3460.00
2018-05-08T12:41:44.767Z,3452.00
2018-05-08T12:43:37.645Z,3452.00
2018-05-08T12:44:37.511Z,3444.00
2018-05-08T12:46:30.362Z,3440.00
2018-05-08T12:47:30.264Z,3436.00
2018-05-08T12:49:23.105Z,3440.00
2018-05-08T12:50:23.057Z,3436.00
2018-05-08T12:52:15.863Z,3432.00
2018-05-08T12:53:15.755Z,3424.00
2018-05-08T12:55:08.706Z,3436.00
2018-05-08T12:56:08.702Z,3436.00
2018-05-08T12:58:01.455Z,3432.00
2018-05-08T12:59:01.412Z,3428.00
2018-05-08T13:00:54.205Z,3428.00
2018-05-08T13:01:54.125Z,3424.00
2018-05-08T13:03:46.936Z,3428.00
2018-05-08T13:04:46.874Z,3420.00
2018-05-08T13:06:39.709Z,3428.00
2018-05-08T13:07:39.617Z,3436.00
2018-05-08T13:09:32.503Z,3424.00
2018-05-08T13:10:32.359Z,3424.00
2018-05-08T13:12:25.194Z,3424.00
2018-05-08T13:13:25.110Z,3432.00
2018-05-08T13:15:17.958Z,3432.00
2018-05-08T13:16:17.864Z,3428.00
2018-05-08T13:18:10.819Z,3440.00
2018-05-08T13:19:10.613Z,3440.00
2018-05-08T13:21:03.460Z,3432.00
2018-05-08T13:22:03.376Z,3444.00
2018-05-08T13:23:56.192Z,3452.00
2018-05-08T13:24:56.110Z,3452.00
2018-05-08T13:26:48.959Z,3448.00
2018-05-08T13:27:48.860Z,3448.00
2018-05-08T13:29:41.718Z,3460.00
2018-05-08T13:30:41.624Z,3464.00
2018-05-08T13:32:34.445Z,3460.00
2018-05-08T13:33:34.366Z,3464.00
2018-05-08T13:35:27.203Z,3460.00
2018-05-08T13:36:27.113Z,3460.00
2018-05-08T13:38:19.958Z,3460.00
2018-05-08T13:39:19.883Z,3464.00
2018-05-08T13:41:12.683Z,3460.00
2018-05-08T13:42:12.617Z,3468.00
2018-05-08T13:44:05.463Z,3468.00
2018-05-08T13:45:05.356Z,3460.00
2018-05-08T13:46:58.185Z,3468.00
2018-05-08T13:47:58.131Z,3472.00
2018-05-08T13:49:50.950Z,3468.00
2018-05-08T13:50:50.846Z,3468.00
2018-05-08T13:52:43.800Z,3488.00
2018-05-08T13:53:43.697Z,3488.00
2018-05-08T13:55:36.546Z,3488.00
2018-05-08T13:56:36.449Z,3484.00
2018-05-08T13:58:29.318Z,3500.00
2018-05-08T13:59:29.199Z,3492.00
2018-05-08T14:01:22.047Z,3492.00
2018-05-08T14:02:21.945Z,3496.00
2018-05-08T14:04:14.900Z,3488.00
2018-05-08T14:05:14.802Z,3496.00
2018-05-08T14:07:07.669Z,3488.00
2018-05-08T14:08:07.565Z,3488.00
2018-05-08T14:10:00.441Z,3488.00
2018-05-08T14:11:00.377Z,3488.00
2018-05-08T14:12:53.236Z,3500.00
2018-05-08T14:13:53.149Z,3504.00
2018-05-08T14:15:46.032Z,3512.00
2018-05-08T14:16:45.910Z,3504.00
2018-05-08T14:18:38.755Z,3516.00
2018-05-08T14:19:38.909Z,3524.00
2018-05-08T14:21:31.598Z,3540.00
2018-05-08T14:22:31.410Z,3548.00
2018-05-08T14:24:24.340Z,3548.00
2018-05-08T14:25:24.261Z,3552.00
2018-05-08T14:27:17.114Z,3556.00
2018-05-08T14:28:17.000Z,3560.00
2018-05-08T14:30:09.848Z,3556.00
2018-05-08T14:31:09.752Z,3556.00
2018-05-08T14:33:02.593Z,3572.00
2018-05-08T14:34:02.503Z,3576.00
2018-05-08T14:35:55.405Z,3588.00
2018-05-08T14:36:55.342Z,3596.00
2018-05-08T14:38:48.200Z,3620.00
2018-05-08T14:39:48.110Z,3620.00
2018-05-08T14:41:40.939Z,3628.00
2018-05-08T14:42:40.857Z,3636.00
2018-05-08T14:44:33.720Z,3648.00
2018-05-08T14:45:33.609Z,3648.00
2018-05-08T14:47:26.489Z,3660.00
2018-05-08T14:48:26.376Z,3664.00
2018-05-08T14:50:20.320Z,3672.00
2018-05-08T14:51:19.099Z,3668.00
2018-05-08T14:53:11.970Z,3664.00
2018-05-08T14:54:11.892Z,3660.00
2018-05-08T14:56:04.703Z,3652.00
2018-05-08T14:57:04.606Z,3664.00
2018-05-08T14:58:57.509Z,3684.00
2018-05-08T14:59:57.366Z,3684.00
2018-05-08T15:01:50.199Z,3692.00
2018-05-08T15:02:50.105Z,3692.00
2018-05-08T15:04:42.937Z,3704.00
2018-05-08T15:05:42.844Z,3712.00
2018-05-08T15:07:35.711Z,3732.00
2018-05-08T15:08:35.601Z,3748.00
2018-05-08T15:10:28.501Z,3764.00
2018-05-08T15:11:28.360Z,3776.00
2018-05-08T15:13:21.179Z,3768.00
2018-05-08T15:14:21.100Z,3780.00
2018-05-08T15:16:13.954Z,3800.00
2018-05-08T15:17:13.940Z,3804.00
2018-05-08T15:19:07.727Z,3820.00
2018-05-08T15:20:07.621Z,3836.00
2018-05-08T15:22:00.570Z,3844.00
2018-05-08T15:23:00.373Z,3860.00
2018-05-08T15:24:53.842Z,3884.00
2018-05-08T15:25:53.641Z,3896.00
2018-05-08T15:27:46.469Z,3904.00
2018-05-08T15:28:46.418Z,3912.00
2018-05-08T15:30:39.387Z,3944.00
2018-05-08T15:31:39.394Z,3948.00
2018-05-08T15:33:32.079Z,3992.00
2018-05-08T15:34:31.985Z,3980.00
2018-05-08T15:36:25.059Z,3980.00
2018-05-08T15:37:24.750Z,3988.00
2018-05-08T15:39:17.627Z,4008.00
2018-05-08T15:40:17.485Z,4012.00
2018-05-08T15:42:10.362Z,4028.00
2018-05-08T15:43:10.233Z,4044.00
2018-05-08T15:45:03.077Z,4112.00
2018-05-08T15:46:02.981Z,4144.00
2018-05-08T15:47:55.859Z,4188.00
2018-05-08T15:48:55.758Z,4220.00
2018-05-08T15:50:48.603Z,4260.00
2018-05-08T15:51:48.482Z,4292.00
2018-05-08T15:53:41.390Z,4372.00
2018-05-08T15:54:41.296Z,4444.00
2018-05-08T15:56:34.081Z,4552.00
2018-05-08T15:57:33.981Z,4616.00
2018-05-08T15:59:26.847Z,4752.00
2018-05-08T16:00:26.726Z,4816.00
2018-05-08T16:02:19.562Z,4900.00
2018-05-08T16:03:19.479Z,4936.00
2018-05-08T16:05:12.671Z,5000.00
2018-05-08T16:06:12.567Z,5048.00
2018-05-08T16:08:05.098Z,5140.00
2018-05-08T16:09:04.978Z,5220.00
2018-05-08T16:10:57.859Z,5332.00
2018-05-08T16:11:57.732Z,5400.00
2018-05-08T16:13:50.569Z,5464.00
2018-05-08T16:14:50.492Z,5528.00
2018-05-08T16:16:43.454Z,5624.00
2018-05-08T16:17:43.408Z,5672.00
2018-05-08T16:19:36.180Z,5744.00
2018-05-08T16:20:36.087Z,5776.00
2018-05-08T16:22:28.963Z,5852.00
2018-05-08T16:23:28.837Z,5900.00
2018-05-08T16:25:22.519Z,5932.00
2018-05-08T16:26:22.427Z,5984.00
2018-05-08T16:28:16.925Z,6048.00
2018-05-08T16:29:15.212Z,6068.00
2018-05-08T16:31:09.237Z,6132.00
2018-05-08T16:32:07.927Z,6168.00
2018-05-08T16:34:01.637Z,6212.00
2018-05-08T16:35:02.057Z,6228.00
2018-05-08T16:36:54.871Z,6248.00
2018-05-08T16:37:54.770Z,6280.00
2018-05-08T16:39:48.727Z,6356.00
2018-05-08T16:40:48.019Z,6392.00
2018-05-08T16:42:41.274Z,6480.00
2018-05-08T16:43:43.051Z,6504.00
2018-05-08T16:45:34.503Z,6636.00
2018-05-08T16:46:33.923Z,6672.00
2018-05-08T16:48:29.282Z,6800.00
2018-05-08T16:49:28.698Z,6868.00
2018-05-08T16:51:21.667Z,7012.00
2018-05-08T16:52:21.374Z,7096.00
2018-05-08T16:54:14.292Z,7324.00
2018-05-08T16:55:14.144Z,7440.00
2018-05-08T16:57:07.030Z,7868.00
2018-05-08T16:58:06.907Z,8348.00
2018-05-08T16:59:59.697Z,33696.00
2018-05-08T17:00:59.605Z,56288.00
2018-05-08T17:02:52.516Z,65920.00
2018-05-08T17:03:52.351Z,66048.00
2018-05-08T17:05:45.195Z,66304.00
2018-05-08T17:06:45.122Z,66272.00
2018-05-08T17:08:37.962Z,65664.00
2018-05-08T17:09:37.904Z,64544.00
2018-05-08T17:11:30.689Z,62272.00
2018-05-08T17:12:30.598Z,61632.00
2018-05-08T17:14:23.671Z,63040.00
2018-05-08T17:15:23.581Z,62336.00
2018-05-08T17:17:16.403Z,60480.00
2018-05-08T17:18:16.314Z,62176.00
2018-05-08T17:20:09.158Z,61760.00
2018-05-08T17:21:09.061Z,60384.00
2018-05-08T17:23:01.889Z,59392.00
2018-05-08T17:24:01.805Z,59328.00
2018-05-08T17:25:54.660Z,57440.00
2018-05-08T17:26:54.584Z,56640.00
2018-05-08T17:28:47.399Z,57248.00
2018-05-08T17:29:47.304Z,56096.00
2018-05-08T17:31:40.227Z,55616.00
2018-05-08T17:32:40.124Z,55008.00
2018-05-08T17:34:32.888Z,53120.00
2018-05-08T17:35:32.805Z,51200.00
2018-05-08T17:37:25.779Z,48896.00
2018-05-08T17:38:25.678Z,48896.00
2018-05-08T17:40:18.533Z,46624.00
2018-05-08T17:41:18.471Z,45792.00
2018-05-08T17:43:11.281Z,43968.00
2018-05-08T17:44:11.159Z,43072.00
2018-05-08T17:46:04.539Z,42592.00